ORY weather

Paris-Orly Airport
Paris, Île-de-France, France

Public forecast

Using degrees Celsius for public forecast. Weather courtesy of forecast.io.

Current aviation weather report (METAR) for Paris-Orly Airport

Retrieved 2019/10/23 04:30 UTC (24 minutes ago):

LFPO 230430Z 04007KT 9999 FEW015 SCT120 11/09 Q1015 NOSIG

Aviation forecast (TAF) for Paris-Orly Airport

Retrieved 2019-10-23 00:26 UTC (4 hours ago):

TAF LFPO 222300Z 2300/2406 06006KT 9999 SCT020 BKN100 TEMPO 2300/2311 BKN008 PROB30 TEMPO 2300/2302 4500 -RA BECMG 2312/2314 12006KT CAVOK TEMPO 2400/2406 4000 BR